GQNO

Nouakchott–Oumtounsy International Airport

Nouakchott, Mauritania
METAR GQNO 221930Z 30011KT 8000 NSC 27/23 Q1009 NOSIG
Observed Flight Rules
Jul-22 @ 19:30 UTC (48 minutes ago) Marginal Visual Flight Rules
Wind Visibility Clouds
300° at 11 knots 7,998 meters
  • Clear skies
Temperatures Readings
Current 27°C / 81°F
Dewpoint 23°C / 73°F
Humidity 79%
Altimeter 29.79" Hg
Pressure 1009 hPa
Elevation 4
METAR GQNO 221930Z 30011KT 8000 NSC 27/23 Q1009 NOSIG
Observed Flight Rules
Jul-22 @ 19:30 UTC
(48 minutes ago)
MVFR
Wind Visibility
300° at 11 knots 7,998 meters
Clouds
  • Clear skies
Temperature Dewpoint
27°C / 81°F 23°C / 73°F
Humidity Altimeter Pressure
79% 29.79" Hg 1009 hPa